Portada
METAR-TAF:

METAR-TAF

Aeropuertos :

Parma, Italia

latitud: 44-49-17N, longitud: 010-17-41E, altitud: 50 m

Observación

El informe se hizo hace 50 minutos, a las 18:50 UTC
Viento 8 kt del sur-suroeste
Temperatura 11°C
Humedad 71%
Presión 1017 hPa
Visibilidad 10 km o más
Nubes dispersas a una altura de 5000 ft

METAR: LIMP 051850Z 21008KT 9999 SCT050 11/06 Q1017

Hora: 20:40 (19:40 UTC)

Pronóstico

El informe se hizo hace 2 horas y 40 minutos, a las 17:00 UTC
Pronóstico válido del 05 a las 18 UTC al 06 a las 18 UTC
Viento 4 kt con dirección variable
Visibilidad 10 km o más
Cielo nuboso a una altura de 5000 ft
Temporalmente
del 05 a las 22 UTC al 06 a las 06 UTC
Visibilidad: 4000 m
Cielo nuboso a una altura de 600 ft
Cielo nuboso a una altura de 3000 ft
chaparrones de lluvia

TAF: LIMP 051700Z 0518/0618 VRB04KT 9999 BKN050 TEMPO 0522/0606 4000 SHRA BKN006 BKN030

Observaciones y pronósticos meteorológicos de más de 4000 aeropuertos (mensajes METAR y TAF).

Los puntos amarillos y rojos representan las estaciones disponibles.

Ponga el ratón en el punto deseado para ver el nombre de la estación.

Haga clic para ver las observaciones y los pronósticos meteorológicos.

Para cambiar el mapa : haga clic en los botones verdes con una cruz de color negro para hacer un zoom, en el botón verde con un guión para alejar o en las flechas verdes para mapas adyacentes.


METAR-TAF: